sensor_id;sensor_type;location;lat;lon;timestamp;temperature;humidity
43842;DHT22;29495;49.970;20.842;2022-09-29T00:01:53;13.90;99.90
43842;DHT22;29495;49.970;20.842;2022-09-29T00:04:50;13.90;99.90
43842;DHT22;29495;49.970;20.842;2022-09-29T00:07:47;13.90;99.90
43842;DHT22;29495;49.970;20.842;2022-09-29T00:10:35;13.80;99.90
43842;DHT22;29495;49.970;20.842;2022-09-29T00:47:21;13.40;99.90
43842;DHT22;29495;49.970;20.842;2022-09-29T00:50:10;13.40;99.90
43842;DHT22;29495;49.970;20.842;2022-09-29T00:52:42;13.30;99.90
43842;DHT22;29495;49.970;20.842;2022-09-29T00:55:11;13.30;99.90
43842;DHT22;29495;49.970;20.842;2022-09-29T00:57:42;13.40;99.90
43842;DHT22;29495;49.970;20.842;2022-09-29T01:00:12;13.40;99.90
43842;DHT22;29495;49.970;20.842;2022-09-29T01:02:58;13.20;99.90
43842;DHT22;29495;49.970;20.842;2022-09-29T01:05:32;13.10;99.90
43842;DHT22;29495;49.970;20.842;2022-09-29T01:08:11;13.00;99.90
43842;DHT22;29495;49.970;20.842;2022-09-29T01:10:39;13.00;99.90
43842;DHT22;29495;49.970;20.842;2022-09-29T01:13:06;13.00;99.90
43842;DHT22;29495;49.970;20.842;2022-09-29T01:15:32;13.00;99.90
43842;DHT22;29495;49.970;20.842;2022-09-29T01:17:59;13.00;99.90
43842;DHT22;29495;49.970;20.842;2022-09-29T01:20:26;12.90;99.90
43842;DHT22;29495;49.970;20.842;2022-09-29T01:32:14;12.90;99.90
43842;DHT22;29495;49.970;20.842;2022-09-29T01:49:44;13.10;99.90
43842;DHT22;29495;49.970;20.842;2022-09-29T01:53:41;13.10;99.90
43842;DHT22;29495;49.970;20.842;2022-09-29T01:56:47;13.00;99.90
43842;DHT22;29495;49.970;20.842;2022-09-29T02:00:36;12.90;99.90
43842;DHT22;29495;49.970;20.842;2022-09-29T02:05:50;12.90;99.90
43842;DHT22;29495;49.970;20.842;2022-09-29T02:08:31;12.90;99.90
43842;DHT22;29495;49.970;20.842;2022-09-29T02:11:05;12.90;99.90
43842;DHT22;29495;49.970;20.842;2022-09-29T02:13:40;12.90;99.90
43842;DHT22;29495;49.970;20.842;2022-09-29T02:16:11;13.00;99.90
43842;DHT22;29495;49.970;20.842;2022-09-29T02:18:52;13.10;99.90
43842;DHT22;29495;49.970;20.842;2022-09-29T02:21:19;13.10;99.90
43842;DHT22;29495;49.970;20.842;2022-09-29T02:23:46;13.20;99.90
43842;DHT22;29495;49.970;20.842;2022-09-29T02:26:13;13.20;99.90
43842;DHT22;29495;49.970;20.842;2022-09-29T02:28:41;13.20;99.90
43842;DHT22;29495;49.970;20.842;2022-09-29T02:31:07;13.10;99.90
43842;DHT22;29495;49.970;20.842;2022-09-29T02:33:33;13.00;99.90
43842;DHT22;29495;49.970;20.842;2022-09-29T02:36:28;13.10;99.90
43842;DHT22;29495;49.970;20.842;2022-09-29T02:47:28;13.10;99.90
43842;DHT22;29495;49.970;20.842;2022-09-29T02:52:56;13.10;99.90
43842;DHT22;29495;49.970;20.842;2022-09-29T03:13:19;12.60;99.90
43842;DHT22;29495;49.970;20.842;2022-09-29T03:16:24;12.50;99.90
43842;DHT22;29495;49.970;20.842;2022-09-29T03:19:04;12.30;99.90
43842;DHT22;29495;49.970;20.842;2022-09-29T03:21:41;12.40;99.90
43842;DHT22;29495;49.970;20.842;2022-09-29T03:24:13;12.30;99.90
43842;DHT22;29495;49.970;20.842;2022-09-29T03:27:23;12.30;99.90
43842;DHT22;29495;49.970;20.842;2022-09-29T03:30:13;12.40;99.90
43842;DHT22;29495;49.970;20.842;2022-09-29T03:32:43;12.40;99.90
43842;DHT22;29495;49.970;20.842;2022-09-29T03:35:09;12.40;99.90
43842;DHT22;29495;49.970;20.842;2022-09-29T03:37:36;12.30;99.90
43842;DHT22;29495;49.970;20.842;2022-09-29T03:40:03;12.30;99.90
43842;DHT22;29495;49.970;20.842;2022-09-29T03:42:29;12.30;99.90
43842;DHT22;29495;49.970;20.842;2022-09-29T03:44:55;12.30;99.90
43842;DHT22;29495;49.970;20.842;2022-09-29T03:47:21;12.20;99.90
43842;DHT22;29495;49.970;20.842;2022-09-29T03:49:47;12.20;99.90
43842;DHT22;29495;49.970;20.842;2022-09-29T03:52:13;12.20;99.90
43842;DHT22;29495;49.970;20.842;2022-09-29T03:54:39;12.20;99.90
43842;DHT22;29495;49.970;20.842;2022-09-29T03:57:05;12.30;99.90
43842;DHT22;29495;49.970;20.842;2022-09-29T03:59:31;12.20;99.90
43842;DHT22;29495;49.970;20.842;2022-09-29T04:01:57;12.20;99.90
43842;DHT22;29495;49.970;20.842;2022-09-29T04:04:23;12.20;99.90
43842;DHT22;29495;49.970;20.842;2022-09-29T04:06:50;12.30;99.90
43842;DHT22;29495;49.970;20.842;2022-09-29T04:09:16;12.30;99.90
43842;DHT22;29495;49.970;20.842;2022-09-29T04:11:42;12.20;99.90
43842;DHT22;29495;49.970;20.842;2022-09-29T04:14:08;12.30;99.90
43842;DHT22;29495;49.970;20.842;2022-09-29T04:16:34;12.40;99.90
43842;DHT22;29495;49.970;20.842;2022-09-29T04:18:59;12.20;99.90
43842;DHT22;29495;49.970;20.842;2022-09-29T04:21:26;12.00;99.90
43842;DHT22;29495;49.970;20.842;2022-09-29T04:23:52;12.00;99.90
43842;DHT22;29495;49.970;20.842;2022-09-29T04:26:17;12.00;99.90
43842;DHT22;29495;49.970;20.842;2022-09-29T04:28:45;12.00;99.90
43842;DHT22;29495;49.970;20.842;2022-09-29T04:31:11;12.10;99.90
43842;DHT22;29495;49.970;20.842;2022-09-29T04:33:38;12.30;99.90
43842;DHT22;29495;49.970;20.842;2022-09-29T04:36:04;12.30;99.90
43842;DHT22;29495;49.970;20.842;2022-09-29T04:38:31;12.30;99.90
43842;DHT22;29495;49.970;20.842;2022-09-29T04:40:57;12.30;99.90
43842;DHT22;29495;49.970;20.842;2022-09-29T04:43:23;12.30;99.90
43842;DHT22;29495;49.970;20.842;2022-09-29T04:45:49;12.20;99.90
43842;DHT22;29495;49.970;20.842;2022-09-29T04:48:15;12.10;99.90
43842;DHT22;29495;49.970;20.842;2022-09-29T04:50:42;12.00;99.90
43842;DHT22;29495;49.970;20.842;2022-09-29T04:53:10;12.00;99.90
43842;DHT22;29495;49.970;20.842;2022-09-29T04:55:37;12.10;99.90
43842;DHT22;29495;49.970;20.842;2022-09-29T04:58:03;12.20;99.90
43842;DHT22;29495;49.970;20.842;2022-09-29T05:00:29;12.10;99.90
43842;DHT22;29495;49.970;20.842;2022-09-29T05:02:57;12.20;99.90
43842;DHT22;29495;49.970;20.842;2022-09-29T05:05:23;12.20;99.90
43842;DHT22;29495;49.970;20.842;2022-09-29T05:07:49;12.20;99.90
43842;DHT22;29495;49.970;20.842;2022-09-29T05:10:15;12.10;99.90
43842;DHT22;29495;49.970;20.842;2022-09-29T05:12:47;12.00;99.90
43842;DHT22;29495;49.970;20.842;2022-09-29T05:15:14;12.00;99.90
43842;DHT22;29495;49.970;20.842;2022-09-29T05:17:40;12.00;99.90
43842;DHT22;29495;49.970;20.842;2022-09-29T05:20:06;12.20;99.90
43842;DHT22;29495;49.970;20.842;2022-09-29T05:22:32;12.20;99.90
43842;DHT22;29495;49.970;20.842;2022-09-29T05:24:58;12.30;99.90
43842;DHT22;29495;49.970;20.842;2022-09-29T05:27:24;12.30;99.90
43842;DHT22;29495;49.970;20.842;2022-09-29T05:29:50;12.30;99.90
43842;DHT22;29495;49.970;20.842;2022-09-29T05:32:16;12.30;99.90
43842;DHT22;29495;49.970;20.842;2022-09-29T05:34:42;12.30;99.90
43842;DHT22;29495;49.970;20.842;2022-09-29T05:37:08;12.40;99.90
43842;DHT22;29495;49.970;20.842;2022-09-29T05:39:34;12.40;99.90
43842;DHT22;29495;49.970;20.842;2022-09-29T05:42:07;12.30;99.90
43842;DHT22;29495;49.970;20.842;2022-09-29T05:44:34;12.30;99.90
43842;DHT22;29495;49.970;20.842;2022-09-29T05:47:00;12.30;99.90
43842;DHT22;29495;49.970;20.842;2022-09-29T05:49:26;12.20;99.90
43842;DHT22;29495;49.970;20.842;2022-09-29T05:51:52;12.10;99.90
43842;DHT22;29495;49.970;20.842;2022-09-29T05:54:19;12.20;99.90
43842;DHT22;29495;49.970;20.842;2022-09-29T05:56:45;12.20;99.90
43842;DHT22;29495;49.970;20.842;2022-09-29T05:59:12;12.10;99.90
43842;DHT22;29495;49.970;20.842;2022-09-29T06:01:38;12.20;99.90
43842;DHT22;29495;49.970;20.842;2022-09-29T06:04:04;12.30;99.90
43842;DHT22;29495;49.970;20.842;2022-09-29T06:06:30;12.40;99.90
43842;DHT22;29495;49.970;20.842;2022-09-29T06:08:57;12.50;99.90
43842;DHT22;29495;49.970;20.842;2022-09-29T06:11:26;12.50;99.90
43842;DHT22;29495;49.970;20.842;2022-09-29T06:13:53;12.50;99.90
43842;DHT22;29495;49.970;20.842;2022-09-29T06:16:22;12.50;99.90
43842;DHT22;29495;49.970;20.842;2022-09-29T06:18:48;12.40;99.90
43842;DHT22;29495;49.970;20.842;2022-09-29T06:21:16;12.50;99.90
43842;DHT22;29495;49.970;20.842;2022-09-29T06:23:43;12.50;99.90
43842;DHT22;29495;49.970;20.842;2022-09-29T06:26:12;12.60;99.90
43842;DHT22;29495;49.970;20.842;2022-09-29T06:28:39;12.60;99.90
43842;DHT22;29495;49.970;20.842;2022-09-29T06:31:16;12.40;99.90
43842;DHT22;29495;49.970;20.842;2022-09-29T06:33:43;12.40;99.90
43842;DHT22;29495;49.970;20.842;2022-09-29T06:36:29;12.50;99.90
43842;DHT22;29495;49.970;20.842;2022-09-29T06:39:15;12.40;99.90
43842;DHT22;29495;49.970;20.842;2022-09-29T06:41:42;12.40;99.90
43842;DHT22;29495;49.970;20.842;2022-09-29T06:44:13;12.60;99.90
43842;DHT22;29495;49.970;20.842;2022-09-29T06:46:40;12.70;99.90
43842;DHT22;29495;49.970;20.842;2022-09-29T06:49:06;12.60;99.90
43842;DHT22;29495;49.970;20.842;2022-09-29T06:51:34;12.40;99.90
43842;DHT22;29495;49.970;20.842;2022-09-29T06:54:00;12.60;99.90
43842;DHT22;29495;49.970;20.842;2022-09-29T06:56:26;12.60;99.90
43842;DHT22;29495;49.970;20.842;2022-09-29T06:58:52;12.60;99.90
43842;DHT22;29495;49.970;20.842;2022-09-29T07:01:19;12.60;99.90
43842;DHT22;29495;49.970;20.842;2022-09-29T07:03:45;12.50;99.90
43842;DHT22;29495;49.970;20.842;2022-09-29T07:06:12;12.40;99.90
43842;DHT22;29495;49.970;20.842;2022-09-29T07:08:38;12.50;99.90
43842;DHT22;29495;49.970;20.842;2022-09-29T07:11:08;12.50;99.90
43842;DHT22;29495;49.970;20.842;2022-09-29T07:13:35;12.60;99.90
43842;DHT22;29495;49.970;20.842;2022-09-29T07:16:09;12.70;99.90
43842;DHT22;29495;49.970;20.842;2022-09-29T07:18:38;12.70;99.90
43842;DHT22;29495;49.970;20.842;2022-09-29T07:21:09;12.80;99.90
43842;DHT22;29495;49.970;20.842;2022-09-29T07:23:36;12.70;99.90
43842;DHT22;29495;49.970;20.842;2022-09-29T07:26:06;12.70;99.90
43842;DHT22;29495;49.970;20.842;2022-09-29T07:28:33;12.60;99.90
43842;DHT22;29495;49.970;20.842;2022-09-29T07:31:04;12.70;99.90
43842;DHT22;29495;49.970;20.842;2022-09-29T07:33:32;12.60;99.90
43842;DHT22;29495;49.970;20.842;2022-09-29T07:35:58;12.60;99.90
43842;DHT22;29495;49.970;20.842;2022-09-29T07:38:29;12.50;99.90
43842;DHT22;29495;49.970;20.842;2022-09-29T07:40:59;12.60;99.90
43842;DHT22;29495;49.970;20.842;2022-09-29T07:43:27;12.50;99.90
43842;DHT22;29495;49.970;20.842;2022-09-29T07:45:53;12.60;99.90
43842;DHT22;29495;49.970;20.842;2022-09-29T07:48:20;12.50;99.90
43842;DHT22;29495;49.970;20.842;2022-09-29T07:50:46;12.40;99.90
43842;DHT22;29495;49.970;20.842;2022-09-29T07:53:12;12.40;99.90
43842;DHT22;29495;49.970;20.842;2022-09-29T07:55:39;12.30;99.90
43842;DHT22;29495;49.970;20.842;2022-09-29T07:58:05;12.40;99.90
43842;DHT22;29495;49.970;20.842;2022-09-29T08:00:39;12.40;99.90
43842;DHT22;29495;49.970;20.842;2022-09-29T08:03:06;12.30;99.90
43842;DHT22;29495;49.970;20.842;2022-09-29T08:05:33;12.30;99.90
43842;DHT22;29495;49.970;20.842;2022-09-29T08:08:01;12.30;99.90
43842;DHT22;29495;49.970;20.842;2022-09-29T08:10:28;12.30;99.90
43842;DHT22;29495;49.970;20.842;2022-09-29T08:12:54;12.30;99.90
43842;DHT22;29495;49.970;20.842;2022-09-29T08:15:21;12.50;99.90
43842;DHT22;29495;49.970;20.842;2022-09-29T08:17:50;12.50;99.90
43842;DHT22;29495;49.970;20.842;2022-09-29T08:20:17;12.50;99.90
43842;DHT22;29495;49.970;20.842;2022-09-29T08:22:43;12.50;99.90
43842;DHT22;29495;49.970;20.842;2022-09-29T08:25:09;12.70;99.90
43842;DHT22;29495;49.970;20.842;2022-09-29T08:27:35;12.70;99.90
43842;DHT22;29495;49.970;20.842;2022-09-29T08:30:01;12.70;99.90
43842;DHT22;29495;49.970;20.842;2022-09-29T08:32:27;12.60;99.90
43842;DHT22;29495;49.970;20.842;2022-09-29T08:34:56;12.70;99.90
43842;DHT22;29495;49.970;20.842;2022-09-29T08:37:26;12.90;99.90
43842;DHT22;29495;49.970;20.842;2022-09-29T08:39:56;12.90;99.90
43842;DHT22;29495;49.970;20.842;2022-09-29T08:45:12;13.10;99.90
43842;DHT22;29495;49.970;20.842;2022-09-29T08:51:35;12.90;99.90
43842;DHT22;29495;49.970;20.842;2022-09-29T08:54:23;12.90;99.90
43842;DHT22;29495;49.970;20.842;2022-09-29T08:56:50;12.90;99.90
43842;DHT22;29495;49.970;20.842;2022-09-29T08:59:19;12.90;99.90
43842;DHT22;29495;49.970;20.842;2022-09-29T09:10:38;12.40;99.90
43842;DHT22;29495;49.970;20.842;2022-09-29T09:19:08;12.70;99.90
43842;DHT22;29495;49.970;20.842;2022-09-29T09:21:48;12.60;99.90
43842;DHT22;29495;49.970;20.842;2022-09-29T09:29:38;12.60;99.90
43842;DHT22;29495;49.970;20.842;2022-09-29T09:32:15;12.70;99.90
43842;DHT22;29495;49.970;20.842;2022-09-29T09:35:03;12.60;99.90
43842;DHT22;29495;49.970;20.842;2022-09-29T09:37:49;12.60;99.90
43842;DHT22;29495;49.970;20.842;2022-09-29T09:40:20;12.70;99.90
43842;DHT22;29495;49.970;20.842;2022-09-29T09:46:41;12.90;99.90
43842;DHT22;29495;49.970;20.842;2022-09-29T09:49:24;13.10;99.90
43842;DHT22;29495;49.970;20.842;2022-09-29T09:52:03;13.00;99.90
43842;DHT22;29495;49.970;20.842;2022-09-29T09:55:16;13.00;99.90
43842;DHT22;29495;49.970;20.842;2022-09-29T10:02:46;13.10;99.90
43842;DHT22;29495;49.970;20.842;2022-09-29T10:05:17;13.00;99.90
43842;DHT22;29495;49.970;20.842;2022-09-29T10:07:46;13.00;99.90
43842;DHT22;29495;49.970;20.842;2022-09-29T10:10:23;12.90;99.90
43842;DHT22;29495;49.970;20.842;2022-09-29T10:13:02;12.90;99.90
43842;DHT22;29495;49.970;20.842;2022-09-29T10:18:14;13.30;99.90
43842;DHT22;29495;49.970;20.842;2022-09-29T10:20:41;13.40;99.90
43842;DHT22;29495;49.970;20.842;2022-09-29T10:23:24;13.40;99.90
43842;DHT22;29495;49.970;20.842;2022-09-29T10:26:12;13.50;99.90
43842;DHT22;29495;49.970;20.842;2022-09-29T10:33:51;13.90;99.90
43842;DHT22;29495;49.970;20.842;2022-09-29T10:36:18;13.90;99.90
43842;DHT22;29495;49.970;20.842;2022-09-29T10:38:48;13.80;99.90
43842;DHT22;29495;49.970;20.842;2022-09-29T10:41:15;13.60;99.90
43842;DHT22;29495;49.970;20.842;2022-09-29T10:43:46;13.60;99.90
43842;DHT22;29495;49.970;20.842;2022-09-29T10:49:20;13.30;99.90
43842;DHT22;29495;49.970;20.842;2022-09-29T10:54:27;13.50;99.90
43842;DHT22;29495;49.970;20.842;2022-09-29T10:56:54;13.70;99.90
43842;DHT22;29495;49.970;20.842;2022-09-29T10:59:23;13.70;99.90
43842;DHT22;29495;49.970;20.842;2022-09-29T11:01:54;13.50;99.90
43842;DHT22;29495;49.970;20.842;2022-09-29T11:04:28;13.70;99.90
43842;DHT22;29495;49.970;20.842;2022-09-29T11:07:05;13.80;99.90
43842;DHT22;29495;49.970;20.842;2022-09-29T11:09:38;13.80;99.90
43842;DHT22;29495;49.970;20.842;2022-09-29T11:14:50;14.10;99.90
43842;DHT22;29495;49.970;20.842;2022-09-29T11:17:38;14.20;99.90
43842;DHT22;29495;49.970;20.842;2022-09-29T11:20:10;14.00;99.90
43842;DHT22;29495;49.970;20.842;2022-09-29T11:23:13;14.30;99.90
43842;DHT22;29495;49.970;20.842;2022-09-29T11:36:42;14.10;99.90
43842;DHT22;29495;49.970;20.842;2022-09-29T11:44:58;14.30;99.90
43842;DHT22;29495;49.970;20.842;2022-09-29T11:47:36;14.40;99.90
43842;DHT22;29495;49.970;20.842;2022-09-29T11:50:22;14.40;99.90
43842;DHT22;29495;49.970;20.842;2022-09-29T11:53:14;14.60;99.90
43842;DHT22;29495;49.970;20.842;2022-09-29T12:04:42;14.30;99.90
43842;DHT22;29495;49.970;20.842;2022-09-29T12:07:28;14.10;99.90
43842;DHT22;29495;49.970;20.842;2022-09-29T12:15:40;14.20;99.90
43842;DHT22;29495;49.970;20.842;2022-09-29T12:18:17;14.20;99.90
43842;DHT22;29495;49.970;20.842;2022-09-29T12:20:47;14.10;99.90
43842;DHT22;29495;49.970;20.842;2022-09-29T12:23:17;14.00;99.90
43842;DHT22;29495;49.970;20.842;2022-09-29T12:26:16;14.10;99.90
43842;DHT22;29495;49.970;20.842;2022-09-29T12:31:28;14.10;99.90
43842;DHT22;29495;49.970;20.842;2022-09-29T12:34:04;14.10;99.90
43842;DHT22;29495;49.970;20.842;2022-09-29T12:42:21;14.00;99.90
43842;DHT22;29495;49.970;20.842;2022-09-29T12:44:52;14.00;99.90
43842;DHT22;29495;49.970;20.842;2022-09-29T12:50:28;14.10;99.90
43842;DHT22;29495;49.970;20.842;2022-09-29T12:53:02;14.20;99.90
43842;DHT22;29495;49.970;20.842;2022-09-29T12:55:41;14.30;99.90
43842;DHT22;29495;49.970;20.842;2022-09-29T12:58:14;14.20;99.90
43842;DHT22;29495;49.970;20.842;2022-09-29T13:00:49;14.20;99.90
43842;DHT22;29495;49.970;20.842;2022-09-29T13:16:39;14.50;99.90
43842;DHT22;29495;49.970;20.842;2022-09-29T13:25:44;14.50;99.90
43842;DHT22;29495;49.970;20.842;2022-09-29T13:27:41;14.40;99.90
43842;DHT22;29495;49.970;20.842;2022-09-29T13:30:18;14.30;99.90
43842;DHT22;29495;49.970;20.842;2022-09-29T13:32:48;14.40;99.90
43842;DHT22;29495;49.970;20.842;2022-09-29T13:35:22;14.30;99.90
43842;DHT22;29495;49.970;20.842;2022-09-29T13:37:55;14.40;99.90
43842;DHT22;29495;49.970;20.842;2022-09-29T13:40:24;14.30;99.90
43842;DHT22;29495;49.970;20.842;2022-09-29T13:42:55;14.10;99.90
43842;DHT22;29495;49.970;20.842;2022-09-29T13:47:58;14.10;99.90
43842;DHT22;29495;49.970;20.842;2022-09-29T13:50:53;14.00;99.90
43842;DHT22;29495;49.970;20.842;2022-09-29T13:53:26;14.20;99.90
43842;DHT22;29495;49.970;20.842;2022-09-29T14:00:55;14.30;99.90
43842;DHT22;29495;49.970;20.842;2022-09-29T14:03:33;14.40;99.90
43842;DHT22;29495;49.970;20.842;2022-09-29T14:06:06;14.40;99.90
43842;DHT22;29495;49.970;20.842;2022-09-29T14:08:40;14.30;99.90
43842;DHT22;29495;49.970;20.842;2022-09-29T14:11:19;14.30;99.90
43842;DHT22;29495;49.970;20.842;2022-09-29T14:13:48;14.40;99.90
43842;DHT22;29495;49.970;20.842;2022-09-29T14:19:03;14.10;99.90
43842;DHT22;29495;49.970;20.842;2022-09-29T14:21:57;13.80;99.90
43842;DHT22;29495;49.970;20.842;2022-09-29T14:24:42;13.50;99.90
43842;DHT22;29495;49.970;20.842;2022-09-29T14:29:59;13.30;99.90
43842;DHT22;29495;49.970;20.842;2022-09-29T14:32:40;13.20;99.90
43842;DHT22;29495;49.970;20.842;2022-09-29T14:35:32;13.10;99.90
43842;DHT22;29495;49.970;20.842;2022-09-29T14:40:34;13.00;99.90
43842;DHT22;29495;49.970;20.842;2022-09-29T14:43:42;13.00;99.90
43842;DHT22;29495;49.970;20.842;2022-09-29T14:58:09;12.90;99.90
43842;DHT22;29495;49.970;20.842;2022-09-29T15:06:13;12.80;99.90
43842;DHT22;29495;49.970;20.842;2022-09-29T15:08:41;13.10;99.90
43842;DHT22;29495;49.970;20.842;2022-09-29T15:11:33;13.10;99.90
43842;DHT22;29495;49.970;20.842;2022-09-29T15:14:21;13.10;99.90
43842;DHT22;29495;49.970;20.842;2022-09-29T15:25:39;12.90;99.90
43842;DHT22;29495;49.970;20.842;2022-09-29T15:28:30;12.90;99.90
43842;DHT22;29495;49.970;20.842;2022-09-29T15:31:02;12.90;99.90
43842;DHT22;29495;49.970;20.842;2022-09-29T15:33:30;12.90;99.90
43842;DHT22;29495;49.970;20.842;2022-09-29T15:36:22;12.80;99.90
43842;DHT22;29495;49.970;20.842;2022-09-29T15:39:00;12.80;99.90
43842;DHT22;29495;49.970;20.842;2022-09-29T15:41:30;12.90;99.90
43842;DHT22;29495;49.970;20.842;2022-09-29T15:44:15;12.80;99.90
43842;DHT22;29495;49.970;20.842;2022-09-29T15:46:49;12.80;99.90
43842;DHT22;29495;49.970;20.842;2022-09-29T15:49:20;12.70;99.90
43842;DHT22;29495;49.970;20.842;2022-09-29T15:54:27;12.70;99.90
43842;DHT22;29495;49.970;20.842;2022-09-29T15:56:54;12.60;99.90
43842;DHT22;29495;49.970;20.842;2022-09-29T15:59:41;12.60;99.90
43842;DHT22;29495;49.970;20.842;2022-09-29T16:02:16;12.70;99.90
43842;DHT22;29495;49.970;20.842;2022-09-29T16:04:46;12.80;99.90
43842;DHT22;29495;49.970;20.842;2022-09-29T16:07:23;12.80;99.90
43842;DHT22;29495;49.970;20.842;2022-09-29T16:13:02;12.70;99.90
43842;DHT22;29495;49.970;20.842;2022-09-29T16:15:36;12.70;99.90
43842;DHT22;29495;49.970;20.842;2022-09-29T16:18:09;12.70;99.90
43842;DHT22;29495;49.970;20.842;2022-09-29T16:20:41;12.80;99.90
43842;DHT22;29495;49.970;20.842;2022-09-29T16:25:40;12.80;99.90
43842;DHT22;29495;49.970;20.842;2022-09-29T16:28:25;12.90;99.90
43842;DHT22;29495;49.970;20.842;2022-09-29T16:31:05;12.80;99.90
43842;DHT22;29495;49.970;20.842;2022-09-29T16:33:35;12.90;99.90
43842;DHT22;29495;49.970;20.842;2022-09-29T16:36:18;13.00;99.90
43842;DHT22;29495;49.970;20.842;2022-09-29T16:38:46;13.00;99.90
43842;DHT22;29495;49.970;20.842;2022-09-29T16:41:28;13.00;99.90
43842;DHT22;29495;49.970;20.842;2022-09-29T16:47:40;13.00;99.90
43842;DHT22;29495;49.970;20.842;2022-09-29T16:50:02;13.00;99.90
43842;DHT22;29495;49.970;20.842;2022-09-29T16:52:49;13.00;99.90
43842;DHT22;29495;49.970;20.842;2022-09-29T16:57:59;12.90;99.90
43842;DHT22;29495;49.970;20.842;2022-09-29T17:00:26;12.80;99.90
43842;DHT22;29495;49.970;20.842;2022-09-29T17:02:53;12.80;99.90
43842;DHT22;29495;49.970;20.842;2022-09-29T17:05:23;12.90;99.90
43842;DHT22;29495;49.970;20.842;2022-09-29T17:07:58;13.00;99.90
43842;DHT22;29495;49.970;20.842;2022-09-29T17:10:25;13.00;99.90
43842;DHT22;29495;49.970;20.842;2022-09-29T17:12:51;12.90;99.90
43842;DHT22;29495;49.970;20.842;2022-09-29T17:15:17;12.80;99.90
43842;DHT22;29495;49.970;20.842;2022-09-29T17:17:45;12.70;99.90
43842;DHT22;29495;49.970;20.842;2022-09-29T17:20:13;12.70;99.90
43842;DHT22;29495;49.970;20.842;2022-09-29T17:22:39;12.60;99.90
43842;DHT22;29495;49.970;20.842;2022-09-29T17:25:06;12.50;99.90
43842;DHT22;29495;49.970;20.842;2022-09-29T17:27:32;12.50;99.90
43842;DHT22;29495;49.970;20.842;2022-09-29T17:30:20;12.50;99.90
43842;DHT22;29495;49.970;20.842;2022-09-29T17:32:51;12.40;99.90
43842;DHT22;29495;49.970;20.842;2022-09-29T17:35:18;12.30;99.90
43842;DHT22;29495;49.970;20.842;2022-09-29T17:37:44;12.30;99.90
43842;DHT22;29495;49.970;20.842;2022-09-29T17:40:45;12.30;99.90
43842;DHT22;29495;49.970;20.842;2022-09-29T17:43:07;12.30;99.90
43842;DHT22;29495;49.970;20.842;2022-09-29T17:45:33;12.40;99.90
43842;DHT22;29495;49.970;20.842;2022-09-29T17:48:03;12.40;99.90
43842;DHT22;29495;49.970;20.842;2022-09-29T17:50:39;12.50;99.90
43842;DHT22;29495;49.970;20.842;2022-09-29T17:53:06;12.40;99.90
43842;DHT22;29495;49.970;20.842;2022-09-29T17:55:34;12.40;99.90
43842;DHT22;29495;49.970;20.842;2022-09-29T17:58:00;12.40;99.90
43842;DHT22;29495;49.970;20.842;2022-09-29T18:00:38;12.50;99.90
43842;DHT22;29495;49.970;20.842;2022-09-29T18:03:09;12.60;99.90
43842;DHT22;29495;49.970;20.842;2022-09-29T18:05:41;12.70;99.90
43842;DHT22;29495;49.970;20.842;2022-09-29T18:08:16;12.60;99.90
43842;DHT22;29495;49.970;20.842;2022-09-29T18:10:46;12.60;99.90
43842;DHT22;29495;49.970;20.842;2022-09-29T18:13:13;12.60;99.90
43842;DHT22;29495;49.970;20.842;2022-09-29T18:15:39;12.60;99.90
43842;DHT22;29495;49.970;20.842;2022-09-29T18:18:07;12.50;99.90
43842;DHT22;29495;49.970;20.842;2022-09-29T18:20:34;12.60;99.90
43842;DHT22;29495;49.970;20.842;2022-09-29T18:23:09;12.70;99.90
43842;DHT22;29495;49.970;20.842;2022-09-29T18:25:35;12.70;99.90
43842;DHT22;29495;49.970;20.842;2022-09-29T18:28:02;12.80;99.90
43842;DHT22;29495;49.970;20.842;2022-09-29T18:30:31;12.80;99.90
43842;DHT22;29495;49.970;20.842;2022-09-29T18:32:58;12.80;99.90
43842;DHT22;29495;49.970;20.842;2022-09-29T18:35:32;12.90;99.90
43842;DHT22;29495;49.970;20.842;2022-09-29T18:37:59;12.80;99.90
43842;DHT22;29495;49.970;20.842;2022-09-29T18:40:28;12.70;99.90
43842;DHT22;29495;49.970;20.842;2022-09-29T18:42:54;12.60;99.90
43842;DHT22;29495;49.970;20.842;2022-09-29T18:45:25;12.60;99.90
43842;DHT22;29495;49.970;20.842;2022-09-29T18:47:54;12.60;99.90
43842;DHT22;29495;49.970;20.842;2022-09-29T18:50:22;12.60;99.90
43842;DHT22;29495;49.970;20.842;2022-09-29T18:52:50;12.60;99.90
43842;DHT22;29495;49.970;20.842;2022-09-29T18:55:18;12.50;99.90
43842;DHT22;29495;49.970;20.842;2022-09-29T18:57:45;12.50;99.90
43842;DHT22;29495;49.970;20.842;2022-09-29T19:00:13;12.50;99.90
43842;DHT22;29495;49.970;20.842;2022-09-29T19:02:40;12.50;99.90
43842;DHT22;29495;49.970;20.842;2022-09-29T19:05:13;12.40;99.90
43842;DHT22;29495;49.970;20.842;2022-09-29T19:07:48;12.50;99.90
43842;DHT22;29495;49.970;20.842;2022-09-29T19:10:16;12.40;99.90
43842;DHT22;29495;49.970;20.842;2022-09-29T19:12:43;12.30;99.90
43842;DHT22;29495;49.970;20.842;2022-09-29T19:15:11;12.40;99.90
43842;DHT22;29495;49.970;20.842;2022-09-29T19:17:48;12.50;99.90
43842;DHT22;29495;49.970;20.842;2022-09-29T19:20:16;12.40;99.90
43842;DHT22;29495;49.970;20.842;2022-09-29T19:22:43;12.30;99.90
43842;DHT22;29495;49.970;20.842;2022-09-29T19:25:16;12.20;99.90
43842;DHT22;29495;49.970;20.842;2022-09-29T19:28:05;12.30;99.90
43842;DHT22;29495;49.970;20.842;2022-09-29T19:30:35;12.40;99.90
43842;DHT22;29495;49.970;20.842;2022-09-29T19:33:04;12.40;99.90
43842;DHT22;29495;49.970;20.842;2022-09-29T19:35:31;12.40;99.90
43842;DHT22;29495;49.970;20.842;2022-09-29T19:37:58;12.30;99.90
43842;DHT22;29495;49.970;20.842;2022-09-29T19:40:27;12.20;99.90
43842;DHT22;29495;49.970;20.842;2022-09-29T19:42:59;12.20;99.90
43842;DHT22;29495;49.970;20.842;2022-09-29T19:45:33;12.20;99.90
43842;DHT22;29495;49.970;20.842;2022-09-29T19:48:04;12.20;99.90
43842;DHT22;29495;49.970;20.842;2022-09-29T19:50:36;12.10;99.90
43842;DHT22;29495;49.970;20.842;2022-09-29T19:53:23;12.20;99.90
43842;DHT22;29495;49.970;20.842;2022-09-29T19:55:50;12.20;99.90
43842;DHT22;29495;49.970;20.842;2022-09-29T19:58:17;12.20;99.90
43842;DHT22;29495;49.970;20.842;2022-09-29T20:01:12;12.10;99.90
43842;DHT22;29495;49.970;20.842;2022-09-29T20:04:13;12.10;99.90
43842;DHT22;29495;49.970;20.842;2022-09-29T20:06:42;12.20;99.90
43842;DHT22;29495;49.970;20.842;2022-09-29T20:09:10;12.20;99.90